Time;durP1;ratioP1;P1;durP2;ratioP2;P2;SDS_P1;SDS_P2;PMS_P1;PMS_P2;Temp;Humidity;BMP_temperature;BMP_pressure;BME280_temperature;BME280_humidity;BME280_pressure;Samples;Min_cycle;Max_cycle;Signal;HPM_P1;HPM_P2
2021/10/11 00:00:22;;;;;;;10.97;7.90;;;;;;;5.28;77.70;101630.41;5008873;28;20208;-86
2021/10/11 00:02:48;;;;;;;11.90;8.23;;;;;;;5.26;77.85;101629.56;5009325;28;20313;-86
2021/10/11 00:05:16;;;;;;;12.13;7.83;;;;;;;5.24;77.54;101637.53;5011263;28;20206;-86
2021/10/11 00:07:43;;;;;;;11.30;7.43;;;;;;;5.21;77.55;101623.53;5002141;28;20592;-86
2021/10/11 00:10:15;;;;;;;8.40;7.13;;;;;;;5.18;77.94;101619.22;5012244;28;20210;-86
2021/10/11 00:12:41;;;;;;;10.43;6.80;;;;;;;5.14;77.85;101624.63;5008373;28;20280;-87
2021/10/11 00:15:09;;;;;;;10.90;7.83;;;;;;;5.10;77.77;101628.25;5000825;28;20871;-85
2021/10/11 00:17:35;;;;;;;12.13;7.97;;;;;;;5.11;78.32;101622.91;5021263;28;20226;-85
2021/10/11 00:20:02;;;;;;;11.47;8.63;;;;;;;5.19;78.73;101620.09;5014641;28;20297;-85
2021/10/11 00:22:29;;;;;;;11.50;8.57;;;;;;;5.35;79.44;101623.22;5003453;28;20314;-84
2021/10/11 00:24:56;;;;;;;15.60;9.87;;;;;;;5.50;80.51;101622.78;5005983;28;20236;-85
2021/10/11 00:27:23;;;;;;;12.27;8.43;;;;;;;5.68;80.55;101626.72;5001576;28;20214;-84
2021/10/11 00:29:49;;;;;;;11.17;8.43;;;;;;;5.85;80.57;101635.03;5000055;28;20295;-84
2021/10/11 00:32:16;;;;;;;9.33;7.40;;;;;;;5.99;80.86;101637.31;5010904;28;20235;-85
2021/10/11 00:34:43;;;;;;;9.57;7.53;;;;;;;6.12;80.95;101638.69;5012392;28;20666;-85
2021/10/11 00:37:10;;;;;;;9.40;7.23;;;;;;;6.23;80.19;101639.25;5013848;28;20709;-85
2021/10/11 00:39:37;;;;;;;10.13;8.30;;;;;;;6.32;80.39;101631.03;4998203;28;20217;-85
2021/10/11 00:42:04;;;;;;;12.47;8.70;;;;;;;6.42;80.31;101639.56;5010819;28;20230;-85
2021/10/11 00:44:31;;;;;;;10.67;7.97;;;;;;;6.48;79.53;101626.13;5009531;28;20293;-85
2021/10/11 00:46:57;;;;;;;11.83;8.43;;;;;;;6.55;80.06;101622.38;5017109;28;20203;-85
2021/10/11 00:49:24;;;;;;;11.77;8.67;;;;;;;6.62;79.66;101618.66;5011705;28;20211;-85
2021/10/11 00:51:51;;;;;;;13.83;8.53;;;;;;;6.69;79.35;101620.16;5006594;28;20226;-86
2021/10/11 00:54:18;;;;;;;12.40;8.27;;;;;;;6.74;78.94;101615.59;5000351;28;20211;-85
2021/10/11 00:56:46;;;;;;;11.50;8.47;;;;;;;6.79;79.05;101610.16;5011757;28;20230;-84
2021/10/11 00:59:13;;;;;;;13.40;8.80;;;;;;;6.84;78.49;101606.44;5008123;28;20286;-85
2021/10/11 01:01:39;;;;;;;14.07;10.00;;;;;;;6.90;78.34;101611.53;4997237;28;20314;-85
2021/10/11 01:04:06;;;;;;;14.10;9.20;;;;;;;6.95;78.69;101606.09;5013979;28;20822;-84
2021/10/11 01:06:36;;;;;;;14.17;9.93;;;;;;;7.00;78.07;101613.88;5004781;28;20569;-87
2021/10/11 01:09:03;;;;;;;12.80;9.87;;;;;;;7.04;78.27;101594.31;5013160;28;20298;-87
2021/10/11 01:11:30;;;;;;;18.07;10.80;;;;;;;7.08;77.71;101596.81;5007938;28;20227;-86
2021/10/11 01:13:58;;;;;;;15.03;11.30;;;;;;;7.10;77.63;101599.41;5015899;28;20221;-85
2021/10/11 01:16:25;;;;;;;15.50;11.40;;;;;;;7.12;77.79;101592.28;5011820;28;20226;-85
2021/10/11 01:18:51;;;;;;;17.30;11.67;;;;;;;7.15;77.32;101593.06;5016238;28;20215;-85
2021/10/11 01:21:19;;;;;;;16.27;11.43;;;;;;;7.16;77.38;101591.28;5014964;28;20246;-87
2021/10/11 01:23:46;;;;;;;14.60;10.33;;;;;;;7.17;77.67;101591.19;5015446;28;20210;-86
2021/10/11 01:26:13;;;;;;;14.87;11.37;;;;;;;7.17;77.60;101604.44;5015381;28;20590;-85
2021/10/11 01:28:39;;;;;;;17.57;11.00;;;;;;;7.19;77.60;101607.03;5010185;28;20208;-84
2021/10/11 01:31:06;;;;;;;16.43;11.57;;;;;;;7.18;78.05;101595.56;5005118;28;20249;-84
2021/10/11 01:33:32;;;;;;;13.43;10.37;;;;;;;7.18;77.32;101595.56;4995366;28;20223;-84
2021/10/11 01:35:59;;;;;;;19.00;11.73;;;;;;;7.16;77.30;101599.22;4995333;28;20203;-85
2021/10/11 01:38:27;;;;;;;15.10;10.70;;;;;;;7.14;77.64;101583.38;5006510;28;20212;-84
2021/10/11 01:40:54;;;;;;;16.77;11.47;;;;;;;7.13;77.67;101588.72;5005054;28;20208;-84
2021/10/11 01:43:20;;;;;;;15.60;10.67;;;;;;;7.11;77.28;101582.59;4995519;28;20796;-84
2021/10/11 01:45:50;;;;;;;15.30;10.77;;;;;;;7.11;77.75;101582.59;4999284;28;20298;-84
2021/10/11 01:48:17;;;;;;;13.80;10.40;;;;;;;7.08;77.35;101575.63;5013903;28;20215;-84
2021/10/11 01:50:44;;;;;;;12.93;10.73;;;;;;;7.08;77.77;101588.00;4999841;28;20210;-84
2021/10/11 01:53:10;;;;;;;16.87;10.60;;;;;;;7.05;77.20;101586.31;5007381;28;20211;-85
2021/10/11 01:55:38;;;;;;;12.90;11.03;;;;;;;7.04;77.95;101576.63;5007486;28;20210;-84
2021/10/11 01:58:05;;;;;;;17.33;10.43;;;;;;;7.02;77.55;101565.22;5000342;28;20237;-84
2021/10/11 02:00:31;;;;;;;13.83;10.13;;;;;;;6.99;77.40;101560.03;5013391;28;20752;-84
2021/10/11 02:03:04;;;;;;;12.87;10.43;;;;;;;6.98;77.83;101566.28;5012785;28;20231;-84
2021/10/11 02:05:31;;;;;;;17.07;10.83;;;;;;;6.94;77.56;101557.56;5008223;28;20218;-85
2021/10/11 02:07:57;;;;;;;13.60;10.60;;;;;;;6.94;78.43;101560.22;5017272;28;20202;-85
2021/10/11 02:10:24;;;;;;;16.47;10.47;;;;;;;6.93;78.26;101554.97;5016146;28;20211;-85
2021/10/11 02:12:52;;;;;;;13.57;11.10;;;;;;;6.93;78.15;101555.84;5005278;28;20246;-85
2021/10/11 02:15:18;;;;;;;18.93;12.87;;;;;;;6.94;78.61;101556.69;5000512;28;20723;-86
2021/10/11 02:17:45;;;;;;;28.73;18.37;;;;;;;6.99;78.50;101553.91;5011957;28;20229;-85
2021/10/11 02:20:12;;;;;;;33.00;20.00;;;;;;;7.07;79.46;101552.69;5012118;28;20582;-85
2021/10/11 02:22:38;;;;;;;34.97;20.40;;;;;;;7.18;79.69;101553.19;5009434;28;20223;-85
2021/10/11 02:25:06;;;;;;;36.17;21.77;;;;;;;7.28;79.80;101549.31;5014389;28;20211;-85
2021/10/11 02:27:32;;;;;;;35.67;22.20;;;;;;;7.37;81.19;101550.75;5014590;28;20206;-85
2021/10/11 02:30:00;;;;;;;40.67;22.67;;;;;;;7.44;80.94;101546.97;5003209;28;20226;-84
2021/10/11 02:32:27;;;;;;;40.07;24.07;;;;;;;7.49;81.14;101544.16;5013846;28;20719;-84
2021/10/11 02:34:53;;;;;;;41.00;24.57;;;;;;;7.57;81.73;101547.38;5013689;28;20203;-86
2021/10/11 02:37:20;;;;;;;40.60;23.27;;;;;;;7.63;80.91;101545.38;4996293;28;20580;-85
2021/10/11 02:39:47;;;;;;;33.40;21.73;;;;;;;7.69;81.31;101546.09;4997191;28;20204;-86
2021/10/11 02:42:13;;;;;;;39.73;23.70;;;;;;;7.75;81.67;101540.53;5014288;28;20254;-86
2021/10/11 02:44:40;;;;;;;43.13;23.23;;;;;;;7.79;81.89;101531.56;5014694;28;20211;-86
2021/10/11 02:47:08;;;;;;;41.03;24.57;;;;;;;7.85;82.09;101536.63;5002081;28;20563;-86
2021/10/11 02:49:35;;;;;;;40.77;24.30;;;;;;;7.88;82.08;101531.22;5009890;28;20204;-86
2021/10/11 02:52:02;;;;;;;42.03;24.70;;;;;;;7.91;81.49;101525.78;4999457;28;20925;-85
2021/10/11 02:54:28;;;;;;;44.03;26.00;;;;;;;7.94;nan;101537.13;5014221;28;20221;-86
2021/10/11 02:56:55;;;;;;;48.80;25.67;;;;;;;7.98;81.79;101527.28;5006186;28;20228;-86
2021/10/11 02:59:21;;;;;;;42.37;26.03;;;;;;;8.01;82.48;101522.72;5001003;28;20204;-86
2021/10/11 03:01:48;;;;;;;45.90;25.80;;;;;;;8.06;82.05;101529.66;4998642;28;20235;-86
2021/10/11 03:04:16;;;;;;;45.73;26.20;;;;;;;8.10;82.52;101516.19;5006882;28;20210;-86
2021/10/11 03:06:42;;;;;;;43.93;25.43;;;;;;;8.13;82.45;101521.38;5001776;28;20776;-85
2021/10/11 03:09:09;;;;;;;46.43;26.87;;;;;;;8.19;82.65;101525.56;5004697;28;20623;-86
2021/10/11 03:11:36;;;;;;;43.77;25.63;;;;;;;8.23;82.19;101522.75;5009856;28;20569;-86
2021/10/11 03:14:03;;;;;;;48.03;27.97;;;;;;;8.27;82.60;101523.47;5009658;28;20824;-86
2021/10/11 03:16:29;;;;;;;46.87;26.40;;;;;;;8.31;82.88;101530.38;5001611;28;20293;-87
2021/10/11 03:18:56;;;;;;;44.07;26.10;;;;;;;8.34;82.51;101517.91;5013909;28;20206;-87
2021/10/11 03:21:24;;;;;;;46.70;27.63;;;;;;;8.37;82.91;101518.69;5004029;28;20591;-87
2021/10/11 03:23:51;;;;;;;48.10;28.47;;;;;;;8.40;82.51;101511.50;5002865;28;20210;-86
2021/10/11 03:26:18;;;;;;;52.20;28.20;;;;;;;8.44;83.08;101518.38;5002383;28;20203;-87
2021/10/11 03:28:45;;;;;;;48.40;28.53;;;;;;;8.46;82.80;101513.00;5008020;28;20207;-86
2021/10/11 03:31:11;;;;;;;57.00;29.50;;;;;;;8.49;83.06;101523.50;5008290;28;20237;-86
2021/10/11 03:33:38;;;;;;;49.47;29.47;;;;;;;8.54;83.51;101519.75;5013804;28;20696;-86
2021/10/11 03:36:05;;;;;;;61.33;31.37;;;;;;;8.57;83.03;101526.72;5007280;28;20212;-85
2021/10/11 03:38:33;;;;;;;52.70;30.20;;;;;;;8.61;83.08;101525.66;5005396;28;20226;-85
2021/10/11 03:40:59;;;;;;;53.77;31.37;;;;;;;8.65;83.33;101528.13;4999851;28;20225;-85
2021/10/11 03:43:26;;;;;;;57.93;31.20;;;;;;;8.69;83.62;101531.53;4995309;28;20212;-85
2021/10/11 03:45:54;;;;;;;57.10;31.17;;;;;;;8.72;83.77;101526.09;5005103;28;20208;-85
2021/10/11 03:48:21;;;;;;;55.73;32.60;;;;;;;8.76;83.69;101532.13;4994437;28;20265;-86
2021/10/11 03:50:48;;;;;;;57.43;31.17;;;;;;;8.77;83.61;101520.59;5007939;28;20225;-86
2021/10/11 03:53:14;;;;;;;54.23;31.87;;;;;;;8.81;83.43;101525.69;5011430;28;20211;-86
2021/10/11 03:55:42;;;;;;;60.60;32.47;;;;;;;8.81;83.91;101525.69;5013159;28;20203;-86
2021/10/11 03:58:09;;;;;;;62.57;33.50;;;;;;;8.86;83.98;101538.78;5012080;28;20599;-86
2021/10/11 04:00:37;;;;;;;57.43;34.80;;;;;;;8.83;84.22;101533.59;5007876;28;20199;-85
2021/10/11 04:03:04;;;;;;;56.00;34.50;;;;;;;8.81;84.83;101532.78;5016244;28;20680;-86
2021/10/11 04:05:31;;;;;;;52.47;31.30;;;;;;;8.80;84.25;101539.91;5013137;28;20199;-87
2021/10/11 04:08:01;;;;;;;59.73;34.00;;;;;;;8.78;84.36;101547.06;5007820;28;20896;-86
2021/10/11 04:10:31;;;;;;;57.30;32.93;;;;;;;8.77;84.58;101545.34;5002271;28;20785;-84
2021/10/11 04:13:02;;;;;;;59.77;33.43;;;;;;;8.77;84.72;101541.84;5010029;28;20222;-85
2021/10/11 04:15:29;;;;;;;59.90;33.37;;;;;;;8.78;85.10;101548.88;5006604;28;20213;-84
2021/10/11 04:17:56;;;;;;;63.60;33.83;;;;;;;8.75;84.89;101552.53;5013544;28;20237;-85
2021/10/11 04:20:23;;;;;;;62.20;33.57;;;;;;;8.75;85.49;101531.28;5009151;28;20677;-85
2021/10/11 04:22:50;;;;;;;61.07;33.37;;;;;;;8.75;85.36;101530.41;5008151;28;20237;-84
2021/10/11 04:25:17;;;;;;;63.50;35.13;;;;;;;8.74;86.23;101534.84;5010033;28;20207;-84
2021/10/11 04:27:44;;;;;;;66.80;34.13;;;;;;;8.73;85.18;101525.16;5013269;28;20795;-84
2021/10/11 04:30:12;;;;;;;60.17;33.37;;;;;;;8.74;86.35;101526.03;5014385;28;20251;-85
2021/10/11 04:32:39;;;;;;;62.00;34.40;;;;;;;8.74;85.81;101523.38;5008630;28;20233;-85
2021/10/11 04:35:06;;;;;;;63.60;33.77;;;;;;;8.73;86.38;101522.50;5004754;28;20210;-85
2021/10/11 04:37:32;;;;;;;67.77;35.47;;;;;;;8.73;86.62;101529.59;5006275;28;20326;-84
2021/10/11 04:39:59;;;;;;;61.43;34.73;;;;;;;8.73;86.46;101535.78;5008081;28;20210;-85
2021/10/11 04:42:26;;;;;;;60.57;34.10;;;;;;;8.75;87.09;101525.09;5006863;28;20233;-85
2021/10/11 04:44:52;;;;;;;69.67;36.07;;;;;;;8.73;86.96;101525.16;5013088;28;20218;-86
2021/10/11 04:47:20;;;;;;;63.20;34.90;;;;;;;8.74;87.42;101513.63;5009824;28;20205;-86
2021/10/11 04:49:47;;;;;;;60.97;33.97;;;;;;;8.75;87.53;101510.03;5010605;28;20865;-86
2021/10/11 04:52:16;;;;;;;59.33;32.67;;;;;;;8.78;87.43;101509.03;5012543;28;20231;-86
2021/10/11 04:54:43;;;;;;;67.13;34.23;;;;;;;8.79;87.55;101524.03;5006553;28;20278;-86
2021/10/11 04:57:09;;;;;;;60.40;34.07;;;;;;;8.78;88.22;101517.84;5012244;28;20249;-87
2021/10/11 04:59:36;;;;;;;63.60;33.30;;;;;;;8.81;87.91;101508.88;5012569;28;20289;-86
2021/10/11 05:02:02;;;;;;;61.13;33.47;;;;;;;8.82;88.09;101511.47;5009689;28;20309;-87
2021/10/11 05:04:30;;;;;;;64.07;32.90;;;;;;;8.85;88.43;101519.31;5007263;28;20211;-86
2021/10/11 05:06:58;;;;;;;54.33;31.20;;;;;;;8.88;88.94;101513.88;5014951;28;20199;-84
2021/10/11 05:09:25;;;;;;;57.70;32.20;;;;;;;8.89;88.69;101512.97;5011345;28;20215;-87
2021/10/11 05:11:53;;;;;;;54.90;31.73;;;;;;;8.91;88.80;101507.59;5013913;28;20223;-86
2021/10/11 05:14:23;;;;;;;60.20;32.17;;;;;;;8.93;88.89;101525.19;5007991;28;20207;-86
2021/10/11 05:16:49;;;;;;;55.47;28.63;;;;;;;8.95;89.06;101517.16;5011685;28;20199;-85
2021/10/11 05:19:23;;;;;;;52.87;30.47;;;;;;;8.97;89.91;101526.75;5008257;28;20234;-86
2021/10/11 05:21:51;;;;;;;53.90;29.97;;;;;;;9.01;89.61;101524.84;5006946;28;20226;-85
2021/10/11 05:24:32;;;;;;;48.17;27.77;;;;;;;9.02;90.04;101514.16;5013358;28;20207;-86
2021/10/11 05:26:59;;;;;;;55.97;29.47;;;;;;;9.05;89.95;101510.50;5015402;28;20657;-88
2021/10/11 05:29:26;;;;;;;50.87;28.07;;;;;;;9.08;90.51;101515.69;5016298;28;20733;-86
2021/10/11 05:31:53;;;;;;;53.10;28.53;;;;;;;9.10;89.76;101521.81;5013706;28;20237;-87
2021/10/11 05:34:20;;;;;;;49.23;28.20;;;;;;;9.13;90.20;101518.16;5012645;28;20214;-84
2021/10/11 05:36:47;;;;;;;49.63;26.70;;;;;;;9.15;89.88;101522.44;5012397;28;20214;-87
2021/10/11 05:39:15;;;;;;;44.53;26.87;;;;;;;9.18;90.75;101518.78;5013196;28;20593;-87
2021/10/11 05:41:43;;;;;;;49.83;26.83;;;;;;;9.21;90.36;101522.19;5012588;28;20237;-87
2021/10/11 05:44:10;;;;;;;46.87;25.33;;;;;;;9.23;90.72;101517.66;5012589;28;20225;-87
2021/10/11 05:46:37;;;;;;;45.37;25.13;;;;;;;9.26;90.66;101532.63;5018505;28;20217;-87
2021/10/11 05:49:03;;;;;;;47.63;26.67;;;;;;;9.29;90.56;101532.50;5011146;28;20199;-86
2021/10/11 05:51:30;;;;;;;48.07;26.60;;;;;;;9.30;90.36;101534.22;5007180;28;20237;-87
2021/10/11 05:53:56;;;;;;;43.93;25.67;;;;;;;9.31;91.13;101531.50;5007917;28;20210;-87
2021/10/11 05:56:27;;;;;;;41.83;25.07;;;;;;;9.34;90.85;101538.44;5011903;28;20224;-88
2021/10/11 05:58:54;;;;;;;46.50;26.63;;;;;;;9.34;91.11;101539.31;5008203;28;20226;-87
2021/10/11 06:01:21;;;;;;;48.33;26.47;;;;;;;9.38;91.16;101542.72;5010448;28;20223;-88
2021/10/11 06:03:47;;;;;;;44.07;25.67;;;;;;;9.39;90.90;101541.78;5010486;28;20207;-88
2021/10/11 06:06:14;;;;;;;46.47;26.57;;;;;;;9.39;90.83;101545.31;5008760;28;20214;-87
2021/10/11 06:08:41;;;;;;;51.63;27.57;;;;;;;9.42;91.10;101552.28;4997652;28;20230;-85
2021/10/11 06:11:07;;;;;;;47.27;26.33;;;;;;;9.44;90.66;101550.44;5009700;28;20222;-87
2021/10/11 06:13:35;;;;;;;47.77;26.30;;;;;;;9.46;91.38;101551.22;5009044;28;20214;-87
2021/10/11 06:16:02;;;;;;;48.10;26.60;;;;;;;9.47;91.14;101552.09;5011865;28;20215;-88
2021/10/11 06:18:28;;;;;;;49.47;26.97;;;;;;;9.49;91.17;101556.41;5016824;28;20232;-89
2021/10/11 06:20:55;;;;;;;49.03;28.07;;;;;;;9.49;90.48;101560.88;5001065;28;20208;-86
2021/10/11 06:23:22;;;;;;;52.40;27.50;;;;;;;9.50;91.19;101559.91;5005732;28;20219;-87
2021/10/11 06:25:48;;;;;;;52.30;27.57;;;;;;;9.50;90.86;101563.44;5013044;28;20297;-87
2021/10/11 06:28:18;;;;;;;51.20;28.63;;;;;;;9.50;90.76;101568.75;5011250;28;20207;-87
2021/10/11 06:30:46;;;;;;;48.27;28.23;;;;;;;9.51;90.51;101567.81;5008111;28;20237;-87
2021/10/11 06:33:13;;;;;;;50.50;28.63;;;;;;;9.52;91.16;101574.00;5000363;28;20207;-87
2021/10/11 06:35:39;;;;;;;43.83;27.90;;;;;;;9.53;90.96;101571.28;5008477;28;20660;-87
2021/10/11 06:38:06;;;;;;;49.97;28.87;;;;;;;9.54;91.20;101580.97;5005443;28;20235;-88
2021/10/11 06:40:33;;;;;;;52.00;27.93;;;;;;;9.54;90.98;101586.31;5008311;28;20673;-87
2021/10/11 06:42:59;;;;;;;50.70;28.47;;;;;;;9.54;90.72;101575.66;5012778;28;20231;-88
2021/10/11 06:45:26;;;;;;;50.97;28.67;;;;;;;9.57;90.78;101582.66;5013610;28;20225;-89
2021/10/11 06:47:54;;;;;;;53.63;29.23;;;;;;;9.58;91.07;101573.75;5005471;28;20212;-87
2021/10/11 06:50:21;;;;;;;51.83;27.13;;;;;;;9.60;91.00;101572.75;5011193;28;20219;-87
2021/10/11 06:52:48;;;;;;;53.40;28.60;;;;;;;9.62;90.84;101578.00;5004484;28;20258;-86
2021/10/11 06:55:14;;;;;;;56.90;30.03;;;;;;;9.64;90.66;101570.81;4996962;28;20319;-88
2021/10/11 06:57:41;;;;;;;51.50;28.97;;;;;;;9.66;90.89;101577.81;4997171;28;20219;-87
2021/10/11 07:00:08;;;;;;;49.27;28.43;;;;;;;9.67;90.72;101582.16;4995280;28;20662;-87
2021/10/11 07:02:35;;;;;;;50.17;28.20;;;;;;;9.70;90.67;101587.34;4999352;28;20235;-88
2021/10/11 07:05:08;;;;;;;54.30;29.00;;;;;;;9.72;90.72;101590.81;5009991;28;20221;-88
2021/10/11 07:07:35;;;;;;;51.10;27.80;;;;;;;9.74;91.08;101588.94;5001807;28;20210;-87
2021/10/11 07:10:04;;;;;;;52.43;30.00;;;;;;;9.76;90.85;101580.91;5013746;28;20219;-87
2021/10/11 07:12:30;;;;;;;56.53;29.17;;;;;;;9.80;91.41;101589.59;5010184;28;20765;-86
2021/10/11 07:14:57;;;;;;;52.27;28.50;;;;;;;9.82;91.41;101585.09;5000265;28;20574;-85
2021/10/11 07:17:24;;;;;;;54.67;28.30;;;;;;;9.86;91.47;101584.00;5014902;28;20210;-87
2021/10/11 07:19:50;;;;;;;54.40;28.17;;;;;;;9.89;91.36;101583.84;5015546;28;20719;-86
2021/10/11 07:22:19;;;;;;;55.60;28.00;;;;;;;9.94;91.53;101595.16;5016531;28;20231;-87
2021/10/11 07:24:47;;;;;;;49.63;27.70;;;;;;;9.97;91.31;101587.03;5014631;28;20225;-84
2021/10/11 07:27:15;;;;;;;50.67;26.90;;;;;;;10.00;91.66;101590.44;4999367;28;20203;-86
2021/10/11 07:29:41;;;;;;;50.00;27.20;;;;;;;10.05;91.51;101596.38;4999681;28;20210;-87
2021/10/11 07:32:09;;;;;;;45.80;26.20;;;;;;;10.09;91.15;101591.78;5010693;28;20227;-87
2021/10/11 07:34:36;;;;;;;50.33;27.53;;;;;;;10.12;91.19;101594.31;4995913;28;20214;-87
2021/10/11 07:37:03;;;;;;;47.40;25.83;;;;;;;10.14;91.42;101597.78;4994010;28;20211;-87
2021/10/11 07:39:31;;;;;;;47.20;25.70;;;;;;;10.18;91.26;101602.03;5008297;28;20227;-87
2021/10/11 07:42:00;;;;;;;48.43;25.70;;;;;;;10.21;91.36;101596.56;5000377;28;20313;-87
2021/10/11 07:44:31;;;;;;;45.37;25.07;;;;;;;10.25;91.33;101600.81;5010374;28;20294;-86
2021/10/11 07:46:58;;;;;;;41.10;24.47;;;;;;;10.29;91.69;101606.88;5009076;28;20199;-87
2021/10/11 07:49:25;;;;;;;42.43;24.77;;;;;;;10.33;91.14;101614.66;5007448;28;20230;-85
2021/10/11 07:51:52;;;;;;;44.43;25.70;;;;;;;10.35;91.54;101606.59;5011233;28;20223;-86
2021/10/11 07:54:19;;;;;;;45.37;24.67;;;;;;;10.38;91.18;101615.31;5011223;28;20203;-87
2021/10/11 07:56:48;;;;;;;40.97;24.77;;;;;;;10.42;91.46;101619.53;5006088;28;20215;-87
2021/10/11 07:59:14;;;;;;;44.13;24.53;;;;;;;10.45;91.42;101602.53;5005931;28;20585;-87
2021/10/11 08:01:41;;;;;;;37.57;22.37;;;;;;;10.48;91.33;101609.53;4996833;28;20730;-87
2021/10/11 08:04:07;;;;;;;38.03;22.80;;;;;;;10.51;91.33;101607.59;5005523;28;20692;-88
2021/10/11 08:06:34;;;;;;;39.50;23.33;;;;;;;10.55;91.37;101606.50;4993375;28;20556;-87
2021/10/11 08:09:01;;;;;;;36.40;22.50;;;;;;;10.59;91.24;101609.88;5012180;28;20203;-87
2021/10/11 08:11:28;;;;;;;39.03;22.77;;;;;;;10.61;91.23;101610.66;5013418;28;20616;-88
2021/10/11 08:13:56;;;;;;;45.43;23.97;;;;;;;10.64;91.23;101605.19;5011572;28;20219;-88
2021/10/11 08:16:22;;;;;;;43.00;23.23;;;;;;;10.67;91.08;101613.91;5001400;28;20210;-86
2021/10/11 08:18:49;;;;;;;37.47;22.77;;;;;;;10.69;90.82;101612.03;5005665;28;20330;-87
2021/10/11 08:21:15;;;;;;;37.80;22.37;;;;;;;10.72;90.75;101613.69;4993363;28;20626;-87
2021/10/11 08:23:42;;;;;;;42.53;22.20;;;;;;;10.73;90.77;101615.41;5006145;28;20225;-87
2021/10/11 08:26:09;;;;;;;37.47;22.77;;;;;;;10.75;90.43;101617.03;4999194;28;20219;-87
2021/10/11 08:28:36;;;;;;;43.50;23.97;;;;;;;10.78;90.45;101626.69;5012612;28;20214;-87
2021/10/11 08:31:04;;;;;;;45.73;23.67;;;;;;;10.79;90.41;101626.63;4998324;28;20215;-86
2021/10/11 08:33:31;;;;;;;37.17;21.93;;;;;;;10.81;90.29;101621.22;5008806;28;20293;-87
2021/10/11 08:36:00;;;;;;;36.57;22.70;;;;;;;10.83;90.15;101630.00;5012408;28;20211;-87
2021/10/11 08:38:27;;;;;;;37.30;22.40;;;;;;;10.88;90.09;101621.78;5015696;28;20227;-86
2021/10/11 08:40:54;;;;;;;42.10;22.20;;;;;;;10.90;90.12;101626.13;5003713;28;20220;-86
2021/10/11 08:43:22;;;;;;;36.57;22.07;;;;;;;10.92;90.01;101623.38;5009997;28;20202;-87
2021/10/11 08:45:49;;;;;;;34.47;21.60;;;;;;;10.95;90.30;101626.72;5016176;28;20211;-87
2021/10/11 08:48:18;;;;;;;38.73;22.90;;;;;;;10.99;89.91;101622.97;5014034;28;20615;-85
2021/10/11 08:50:44;;;;;;;43.53;22.87;;;;;;;11.03;89.51;101629.03;5006584;28;20209;-88
2021/10/11 08:53:11;;;;;;;41.60;22.43;;;;;;;11.07;89.83;101627.94;5005503;28;20207;-86
2021/10/11 08:55:39;;;;;;;39.63;23.10;;;;;;;11.11;89.68;101630.34;5007919;28;20769;-87
2021/10/11 08:58:07;;;;;;;42.07;20.67;;;;;;;11.18;89.47;101630.06;4998526;28;20218;-86
2021/10/11 09:00:35;;;;;;;37.43;21.97;;;;;;;11.22;89.49;101636.97;5007043;28;20204;-86
2021/10/11 09:03:03;;;;;;;37.30;21.53;;;;;;;11.25;89.50;101631.50;4998464;28;20688;-86
2021/10/11 09:05:33;;;;;;;37.27;22.07;;;;;;;11.28;89.26;101631.34;4999857;28;20675;-87
2021/10/11 09:08:01;;;;;;;31.63;20.67;;;;;;;11.32;89.15;101624.88;5008638;28;20552;-88
2021/10/11 09:10:28;;;;;;;31.13;20.23;;;;;;;11.33;89.24;101634.63;5014215;28;20213;-87
2021/10/11 09:12:55;;;;;;;32.33;20.33;;;;;;;11.35;89.09;101630.94;5006634;28;20233;-86
2021/10/11 09:15:25;;;;;;;33.10;19.27;;;;;;;11.36;88.76;101624.66;5008539;28;20200;-87
2021/10/11 09:17:55;;;;;;;27.90;18.77;;;;;;;11.38;88.72;101638.78;5011053;28;20250;-86
2021/10/11 09:20:24;;;;;;;34.37;19.43;;;;;;;11.40;88.58;101638.72;5010189;28;20291;-87
2021/10/11 09:22:54;;;;;;;35.93;18.90;;;;;;;11.45;88.71;101634.00;5006235;28;20223;-86
2021/10/11 09:25:31;;;;;;;29.20;18.03;;;;;;;11.48;88.46;101626.69;5011896;28;20286;-86
2021/10/11 09:27:58;;;;;;;31.80;18.87;;;;;;;11.56;88.40;101636.09;5008243;28;20210;-86
2021/10/11 09:30:27;;;;;;;25.90;18.13;;;;;;;11.64;88.55;101634.78;5009995;28;20199;-86
2021/10/11 09:33:07;;;;;;;26.67;15.93;;;;;;;11.76;88.35;101634.16;5010818;28;20338;-88
2021/10/11 09:35:35;;;;;;;24.70;14.97;;;;;;;11.91;88.78;101636.97;5007461;28;20204;-86
2021/10/11 09:38:03;;;;;;;24.80;13.47;;;;;;;12.04;88.72;101641.56;5007197;28;20208;-87
2021/10/11 09:40:40;;;;;;;28.40;14.33;;;;;;;12.18;88.40;101629.28;5009814;28;20237;-87
2021/10/11 09:43:11;;;;;;;18.43;11.73;;;;;;;12.29;87.84;101635.75;5010392;28;20573;-88
2021/10/11 09:45:38;;;;;;;17.67;10.77;;;;;;;12.39;87.47;101630.75;5009696;28;20214;-88
2021/10/11 09:48:07;;;;;;;20.10;12.30;;;;;;;12.47;86.71;101629.41;5010376;28;20210;-88
2021/10/11 09:50:34;;;;;;;15.63;9.17;;;;;;;12.52;86.23;101621.13;5011111;28;20218;-86
2021/10/11 09:53:03;;;;;;;18.90;9.67;;;;;;;12.62;85.30;101619.66;5010277;28;20248;-86
2021/10/11 09:55:32;;;;;;;15.60;8.50;;;;;;;12.73;84.92;101616.38;5013716;28;20199;-86
2021/10/11 09:57:59;;;;;;;13.23;8.03;;;;;;;12.83;84.30;101612.22;5008783;28;20580;-86
2021/10/11 10:00:25;;;;;;;13.50;7.23;;;;;;;12.89;83.60;101614.56;5010997;28;20230;-87
2021/10/11 10:02:54;;;;;;;12.97;6.57;;;;;;;12.96;83.11;101618.59;5009737;28;20318;-85
2021/10/11 10:05:26;;;;;;;13.93;6.40;;;;;;;13.04;82.18;101610.13;5010372;28;20209;-87
2021/10/11 10:07:55;;;;;;;11.37;6.13;;;;;;;13.11;81.68;101612.34;5010418;28;20207;-86
2021/10/11 10:10:25;;;;;;;14.37;6.00;;;;;;;13.20;81.19;101617.19;5003178;28;20208;-86
2021/10/11 10:12:53;;;;;;;13.70;6.33;;;;;;;13.28;80.73;101613.19;5009960;28;20227;-86
2021/10/11 10:15:28;;;;;;;13.27;6.70;;;;;;;13.35;80.01;101611.88;5010089;28;20574;-87
2021/10/11 10:18:06;;;;;;;13.60;6.63;;;;;;;13.45;79.48;101605.03;5014557;28;20214;-86
2021/10/11 10:20:34;;;;;;;8.83;6.00;;;;;;;13.60;79.60;101598.75;5012284;28;20233;-86
2021/10/11 10:23:02;;;;;;;13.20;5.90;;;;;;;13.76;79.23;101606.72;5012790;28;20225;-86
2021/10/11 10:25:30;;;;;;;14.93;5.20;;;;;;;13.87;78.04;101597.06;5018794;28;20207;-86
2021/10/11 10:28:10;;;;;;;11.13;5.07;;;;;;;13.97;77.75;101602.72;5022491;28;20254;-86
2021/10/11 10:30:37;;;;;;;17.40;6.10;;;;;;;14.00;76.22;101601.63;5018370;28;20203;-87
2021/10/11 10:33:05;;;;;;;8.57;4.43;;;;;;;14.01;75.58;101604.22;5016970;28;20221;-87
2021/10/11 10:35:34;;;;;;;12.57;4.77;;;;;;;14.02;74.70;101603.25;5014021;28;20202;-86
2021/10/11 10:38:01;;;;;;;7.60;4.23;;;;;;;14.02;74.50;101605.94;5015196;28;20217;-86
2021/10/11 10:40:31;;;;;;;10.20;4.40;;;;;;;14.04;73.82;101598.69;5014188;28;20227;-86
2021/10/11 10:43:07;;;;;;;5.70;3.00;;;;;;;14.10;73.61;101597.44;5016655;28;20222;-87
2021/10/11 10:45:36;;;;;;;8.40;3.80;;;;;;;14.11;73.36;101602.69;5007578;28;20299;-86
2021/10/11 10:48:03;;;;;;;8.70;3.87;;;;;;;14.16;72.96;101589.00;5013652;28;20203;-86
2021/10/11 10:50:34;;;;;;;11.07;4.40;;;;;;;14.19;72.87;101592.34;5013420;28;20207;-87
2021/10/11 10:53:02;;;;;;;12.70;5.23;;;;;;;14.21;72.40;101595.78;5010423;28;20265;-86
2021/10/11 10:55:30;;;;;;;11.27;5.10;;;;;;;14.23;72.08;101601.06;5008980;28;20210;-87
2021/10/11 10:58:01;;;;;;;11.63;4.17;;;;;;;14.27;72.13;101596.38;5007122;28;20219;-87
2021/10/11 11:00:28;;;;;;;7.90;2.10;;;;;;;14.29;71.42;101597.13;5010773;28;20219;-87
2021/10/11 11:02:55;;;;;;;4.77;2.63;;;;;;;14.34;71.41;101593.19;5010115;28;20719;-88
2021/10/11 11:05:23;;;;;;;8.27;2.30;;;;;;;14.38;70.81;101597.41;5012483;28;20287;-86
2021/10/11 11:07:52;;;;;;;10.03;2.73;;;;;;;14.40;70.52;101589.25;5011397;28;20654;-86
2021/10/11 11:10:21;;;;;;;7.73;2.53;;;;;;;14.44;70.08;101596.19;5010470;28;20199;-86
2021/10/11 11:12:54;;;;;;;7.73;2.87;;;;;;;14.47;69.82;101590.63;5009740;28;20249;-86
2021/10/11 11:15:27;;;;;;;8.57;3.97;;;;;;;14.50;69.67;101575.22;5008156;28;20204;-87
2021/10/11 11:17:56;;;;;;;12.33;3.97;;;;;;;14.52;69.19;101575.94;5013486;28;20231;-86